createdAt,value
2023-12-23T00:02:36.753Z,99670.06
2023-12-23T00:07:38.273Z,99654.06
2023-12-23T00:12:39.906Z,99678.59
2023-12-23T00:17:41.748Z,99666.81
2023-12-23T00:22:43.467Z,99665.69
2023-12-23T00:27:45.020Z,99654.34
2023-12-23T00:32:48.602Z,99646.59
2023-12-23T00:37:50.397Z,99653.50
2023-12-23T00:42:52.055Z,99650.56
2023-12-23T00:47:54.428Z,99651.09
2023-12-23T00:52:56.180Z,99644.25
2023-12-23T00:57:57.987Z,99661.38
2023-12-23T01:02:59.480Z,99636.16
2023-12-23T01:08:01.118Z,99644.91
2023-12-23T01:13:02.694Z,99658.69
2023-12-23T01:18:04.390Z,99674.53
2023-12-23T01:23:07.588Z,99671.53
2023-12-23T01:28:09.444Z,99652.97
2023-12-23T01:33:11.431Z,99648.19
2023-12-23T01:38:13.042Z,99640.47
2023-12-23T01:43:14.584Z,99659.97
2023-12-23T01:48:17.204Z,99654.28
2023-12-23T01:53:18.987Z,99640.41
2023-12-23T01:58:21.407Z,99650.38
2023-12-23T02:03:23.062Z,99656.50
2023-12-23T02:08:24.608Z,99653.13
2023-12-23T02:13:26.802Z,99657.75
2023-12-23T02:18:29.127Z,99659.69
2023-12-23T02:23:30.830Z,99658.91
2023-12-23T02:28:32.557Z,99682.63
2023-12-23T02:33:34.388Z,99673.50
2023-12-23T02:38:38.324Z,99688.66
2023-12-23T02:43:40.186Z,99685.47
2023-12-23T02:48:42.102Z,99661.69
2023-12-23T02:53:43.945Z,99682.94
2023-12-23T02:58:45.500Z,99660.34
2023-12-23T03:03:47.063Z,99656.47
2023-12-23T03:08:48.830Z,99658.06
2023-12-23T03:13:53.204Z,99641.91
2023-12-23T03:18:54.792Z,99650.19
2023-12-23T03:23:56.381Z,99638.84
2023-12-23T03:28:59.264Z,99632.97
2023-12-23T03:34:01.405Z,99631.81
2023-12-23T03:39:03.159Z,99644.31
2023-12-23T03:44:05.102Z,99639.41
2023-12-23T03:49:06.735Z,99631.13
2023-12-23T03:54:08.266Z,99632.69
2023-12-23T03:59:09.822Z,99635.34
2023-12-23T04:04:11.487Z,99658.00
2023-12-23T04:09:12.982Z,99641.88
2023-12-23T04:14:14.559Z,99659.16
2023-12-23T04:19:16.204Z,99656.66
2023-12-23T04:24:21.097Z,99657.72
2023-12-23T04:29:22.646Z,99659.13
2023-12-23T04:34:25.321Z,99647.94
2023-12-23T04:39:29.043Z,99652.88
2023-12-23T04:44:30.774Z,99652.19
2023-12-23T04:49:34.653Z,99656.22
2023-12-23T04:54:36.234Z,99655.16
2023-12-23T04:59:37.767Z,99633.50
2023-12-23T05:04:40.720Z,99630.91
2023-12-23T05:09:44.055Z,99618.47
2023-12-23T05:14:46.566Z,99627.69
2023-12-23T05:19:49.437Z,99621.53
2023-12-23T05:24:51.024Z,99614.09
2023-12-23T05:29:52.598Z,99600.13
2023-12-23T05:34:54.138Z,99585.72
2023-12-23T05:39:55.668Z,99580.41
2023-12-23T05:44:57.164Z,99578.22
2023-12-23T05:49:58.763Z,99586.00
2023-12-23T05:55:00.354Z,99583.16
2023-12-23T06:00:01.897Z,99583.44
2023-12-23T06:05:05.151Z,99567.34
2023-12-23T06:10:07.371Z,99581.75
2023-12-23T06:15:09.284Z,99572.53
2023-12-23T06:20:13.851Z,99576.03
2023-12-23T06:25:15.386Z,99554.16
2023-12-23T06:30:16.981Z,99561.56
2023-12-23T06:35:19.773Z,99546.66
2023-12-23T06:40:21.425Z,99551.13
2023-12-23T06:45:22.935Z,99540.66
2023-12-23T06:50:24.511Z,99538.75
2023-12-23T06:55:26.068Z,99543.31
2023-12-23T07:00:27.648Z,99535.03
2023-12-23T07:05:29.202Z,99551.91
2023-12-23T07:10:30.722Z,99542.41
2023-12-23T07:15:32.216Z,99547.19
2023-12-23T07:20:33.707Z,99553.75
2023-12-23T07:25:35.213Z,99548.72
2023-12-23T07:30:45.475Z,99551.84
2023-12-23T07:35:47.104Z,99551.53
2023-12-23T07:40:48.622Z,99554.53
2023-12-23T07:45:50.126Z,99550.47
2023-12-23T07:50:51.623Z,99566.56
2023-12-23T07:55:53.177Z,99561.75
2023-12-23T08:00:55.250Z,99569.88
2023-12-23T08:05:56.791Z,99568.44
2023-12-23T08:10:58.570Z,99569.66
2023-12-23T08:16:00.296Z,99564.44
2023-12-23T08:21:04.419Z,99558.41
2023-12-23T08:26:06.034Z,99562.22
2023-12-23T08:31:08.123Z,99558.06
2023-12-23T08:36:09.697Z,99558.69
2023-12-23T08:41:11.206Z,99564.16
2023-12-23T08:46:16.693Z,99550.41
2023-12-23T08:51:18.180Z,99569.88
2023-12-23T08:56:19.779Z,99576.56
2023-12-23T09:01:21.944Z,99576.38
2023-12-23T09:06:23.453Z,99592.28
2023-12-23T09:11:25.200Z,99597.28
2023-12-23T09:16:26.735Z,99591.63
2023-12-23T09:21:28.235Z,99598.38
2023-12-23T09:26:29.765Z,99604.22
2023-12-23T09:31:31.678Z,99606.97
2023-12-23T09:36:33.203Z,99613.28
2023-12-23T09:41:34.704Z,99606.19
2023-12-23T09:46:39.153Z,99609.81
2023-12-23T09:51:40.642Z,99607.22
2023-12-23T09:56:42.139Z,99606.88
2023-12-23T10:01:43.707Z,99613.88
2023-12-23T10:06:45.283Z,99613.06
2023-12-23T10:11:46.805Z,99611.75
2023-12-23T10:16:49.648Z,99612.31
2023-12-23T10:21:51.598Z,99609.63
2023-12-23T10:26:53.107Z,99605.09
2023-12-23T10:31:56.180Z,99617.94
2023-12-23T10:36:57.685Z,99626.44
2023-12-23T10:42:04.230Z,99609.63
2023-12-23T10:47:05.788Z,99621.47
2023-12-23T10:52:07.748Z,99636.75
2023-12-23T10:57:09.391Z,99628.09
2023-12-23T11:02:16.885Z,99623.84
2023-12-23T11:07:20.808Z,99626.78
2023-12-23T11:12:22.329Z,99629.06
2023-12-23T11:17:28.112Z,99633.16
2023-12-23T11:22:30.313Z,99643.22
2023-12-23T11:27:37.818Z,99638.13
2023-12-23T11:32:41.299Z,99632.53
2023-12-23T11:37:56.975Z,99633.75
2023-12-23T11:42:58.595Z,99639.28
2023-12-23T11:48:00.482Z,99671.25
2023-12-23T11:53:02.957Z,99650.03
2023-12-23T11:58:04.638Z,99648.06
2023-12-23T12:03:06.408Z,99648.78
2023-12-23T12:08:08.023Z,99668.72
2023-12-23T12:13:09.631Z,99686.13
2023-12-23T12:18:12.561Z,99676.91
2023-12-23T12:23:14.415Z,99676.16
2023-12-23T12:28:16.291Z,99691.03
2023-12-23T12:33:17.841Z,99697.72
2023-12-23T12:38:23.679Z,99688.13
2023-12-23T12:43:30.883Z,99681.22
2023-12-23T12:48:32.526Z,99678.91
2023-12-23T12:53:34.372Z,99675.00
2023-12-23T12:58:36.003Z,99682.41
2023-12-23T13:03:38.610Z,99677.56
2023-12-23T13:08:40.291Z,99680.19
2023-12-23T13:13:41.848Z,99694.22
2023-12-23T13:18:52.827Z,99688.03
2023-12-23T13:23:58.708Z,99701.41
2023-12-23T13:29:00.491Z,99693.06
2023-12-23T13:34:02.101Z,99704.47
2023-12-23T13:39:07.827Z,99720.00
2023-12-23T13:44:09.406Z,99719.84
2023-12-23T13:49:11.093Z,99726.03
2023-12-23T13:54:12.673Z,99722.16
2023-12-23T13:59:14.208Z,99720.44
2023-12-23T14:04:15.741Z,99740.22
2023-12-23T14:09:19.590Z,99738.50
2023-12-23T14:14:21.224Z,99746.06
2023-12-23T14:19:22.890Z,99743.84
2023-12-23T14:24:24.485Z,99748.06
2023-12-23T14:29:26.146Z,99758.69
2023-12-23T14:34:27.728Z,99776.03
2023-12-23T14:39:29.250Z,99772.69
2023-12-23T14:44:30.896Z,99791.16
2023-12-23T14:49:32.429Z,99786.44
2023-12-23T14:54:34.206Z,99784.44
2023-12-23T14:59:36.083Z,99791.94
2023-12-23T15:04:38.218Z,99790.91
2023-12-23T15:09:39.796Z,99791.47
2023-12-23T15:14:41.281Z,99803.41
2023-12-23T15:19:42.777Z,99806.09
2023-12-23T15:24:44.291Z,99797.78
2023-12-23T15:29:45.802Z,99797.00
2023-12-23T15:34:47.317Z,99803.16
2023-12-23T15:39:48.837Z,99806.38
2023-12-23T15:44:50.408Z,99813.59
2023-12-23T15:49:52.162Z,99814.63
2023-12-23T15:54:53.793Z,99819.00
2023-12-23T15:59:55.299Z,99810.91
2023-12-23T16:04:56.916Z,99809.22
2023-12-23T16:09:58.570Z,99814.81
2023-12-23T16:15:01.166Z,99807.53
2023-12-23T16:20:04.086Z,99805.56
2023-12-23T16:25:06.057Z,99809.09
2023-12-23T16:30:08.179Z,99797.50
2023-12-23T16:35:10.805Z,99807.63
2023-12-23T16:40:12.579Z,99794.75
2023-12-23T16:45:16.684Z,99792.13
2023-12-23T16:50:18.276Z,99790.91
2023-12-23T16:55:20.202Z,99784.91
2023-12-23T17:00:22.028Z,99793.94
2023-12-23T17:05:23.567Z,99795.56
2023-12-23T17:10:26.234Z,99791.88
2023-12-23T17:15:30.536Z,99781.16
2023-12-23T17:20:32.950Z,99789.84
2023-12-23T17:25:34.599Z,99782.94
2023-12-23T17:30:36.172Z,99781.22
2023-12-23T17:35:40.488Z,99775.81
2023-12-23T17:40:45.477Z,99781.19
2023-12-23T17:45:47.445Z,99772.63
2023-12-23T17:50:49.142Z,99779.41
2023-12-23T17:55:51.069Z,99788.13
2023-12-23T18:00:52.776Z,99787.94
2023-12-23T18:05:54.307Z,99793.03
2023-12-23T18:10:55.846Z,99791.16
2023-12-23T18:15:57.400Z,99785.84
2023-12-23T18:20:58.917Z,99780.63
2023-12-23T18:26:00.470Z,99779.81
2023-12-23T18:31:02.887Z,99778.50
2023-12-23T18:36:04.590Z,99770.13
2023-12-23T18:41:06.592Z,99764.38
2023-12-23T18:46:08.302Z,99764.53
2023-12-23T18:51:13.007Z,99758.66
2023-12-23T18:56:17.049Z,99763.25
2023-12-23T19:01:19.005Z,99743.09
2023-12-23T19:06:20.530Z,99749.47
2023-12-23T19:11:22.339Z,99762.31
2023-12-23T19:16:25.327Z,99741.00
2023-12-23T19:21:27.040Z,99734.38
2023-12-23T19:26:28.939Z,99729.66
2023-12-23T19:31:33.101Z,99734.31
2023-12-23T19:36:35.053Z,99730.09
2023-12-23T19:41:36.626Z,99745.09
2023-12-23T19:46:38.151Z,99732.75
2023-12-23T19:51:42.165Z,99738.91
2023-12-23T19:56:43.727Z,99741.25
2023-12-23T20:01:48.405Z,99735.28
2023-12-23T20:06:49.988Z,99722.50
2023-12-23T20:11:52.675Z,99715.56
2023-12-23T20:16:54.216Z,99722.03
2023-12-23T20:21:55.913Z,99705.09
2023-12-23T20:26:57.476Z,99688.81
2023-12-23T20:31:59.025Z,99680.88
2023-12-23T20:37:05.935Z,99683.72
2023-12-23T20:42:09.088Z,99670.28
2023-12-23T20:47:10.512Z,99662.19
2023-12-23T20:52:12.041Z,99657.53
2023-12-23T20:57:13.569Z,99650.25
2023-12-23T21:02:15.130Z,99649.78
2023-12-23T21:07:17.369Z,99644.31
2023-12-23T21:12:18.921Z,99640.50
2023-12-23T21:17:20.829Z,99631.50
2023-12-23T21:22:23.437Z,99628.69
2023-12-23T21:27:25.067Z,99620.19
2023-12-23T21:32:26.747Z,99594.31
2023-12-23T21:37:28.320Z,99597.41
2023-12-23T21:42:29.867Z,99597.94
2023-12-23T21:47:31.473Z,99588.28
2023-12-23T21:52:33.096Z,99578.25
2023-12-23T21:57:34.659Z,99558.38
2023-12-23T22:02:38.465Z,99556.22
2023-12-23T22:07:42.684Z,99559.19
2023-12-23T22:12:44.242Z,99547.09
2023-12-23T22:17:45.893Z,99536.88
2023-12-23T22:22:47.430Z,99540.63
2023-12-23T22:27:49.370Z,99530.03
2023-12-23T22:32:51.664Z,99513.09
2023-12-23T22:37:53.406Z,99511.88
2023-12-23T22:42:54.990Z,99490.41
2023-12-23T22:47:56.564Z,99482.91
2023-12-23T22:52:58.192Z,99483.38
2023-12-23T22:57:59.883Z,99477.47
2023-12-23T23:03:02.488Z,99484.16
2023-12-23T23:08:05.357Z,99452.50
2023-12-23T23:13:07.869Z,99451.34
2023-12-23T23:18:09.545Z,99449.91
2023-12-23T23:23:11.190Z,99457.53
2023-12-23T23:28:12.727Z,99444.00
2023-12-23T23:33:14.416Z,99436.97
2023-12-23T23:38:16.039Z,99466.28
2023-12-23T23:43:18.009Z,99460.00
2023-12-23T23:48:19.574Z,99459.31
2023-12-23T23:53:22.164Z,99435.13
2023-12-23T23:58:23.695Z,99434.00
